createdAt,value
2022-09-18T00:00:44.777Z,194.62
2022-09-18T00:01:44.881Z,194.28
2022-09-18T00:02:44.999Z,193.82
2022-09-18T00:03:44.994Z,193.93
2022-09-18T00:04:45.084Z,195.20
2022-09-18T00:05:45.128Z,195.20
2022-09-18T00:06:45.213Z,195.77
2022-09-18T00:07:45.296Z,195.20
2022-09-18T00:08:45.370Z,194.85
2022-09-18T00:09:45.462Z,194.16
2022-09-18T00:10:45.534Z,194.85
2022-09-18T00:11:45.659Z,194.62
2022-09-18T00:12:45.687Z,194.51
2022-09-18T00:13:45.761Z,196.59
2022-09-18T00:14:45.863Z,195.66
2022-09-18T00:15:45.963Z,195.31
2022-09-18T00:16:46.005Z,195.08
2022-09-18T00:17:46.091Z,195.08
2022-09-18T00:18:46.170Z,195.66
2022-09-18T00:19:46.253Z,196.12
2022-09-18T00:20:46.323Z,195.77
2022-09-18T00:21:46.402Z,195.54
2022-09-18T00:22:46.485Z,196.35
2022-09-18T00:23:46.569Z,196.01
2022-09-18T00:24:46.644Z,195.08
2022-09-18T00:25:46.692Z,196.71
2022-09-18T00:26:46.780Z,195.66
2022-09-18T00:27:46.883Z,196.01
2022-09-18T00:28:46.973Z,197.29
2022-09-18T00:29:47.057Z,196.12
2022-09-18T00:30:47.104Z,196.47
2022-09-18T00:31:47.262Z,196.82
2022-09-18T00:32:47.297Z,195.31
2022-09-18T00:33:47.418Z,195.54
2022-09-18T00:34:47.443Z,196.82
2022-09-18T00:35:47.521Z,196.35
2022-09-18T00:36:47.589Z,196.12
2022-09-18T00:37:47.656Z,196.12
2022-09-18T00:38:47.740Z,197.29
2022-09-18T00:39:47.841Z,195.54
2022-09-18T00:40:47.915Z,196.35
2022-09-18T00:41:48.009Z,196.12
2022-09-18T00:42:48.081Z,195.89
2022-09-18T00:43:48.156Z,196.12
2022-09-18T00:44:48.253Z,197.76
2022-09-18T00:45:48.303Z,197.53
2022-09-18T00:46:48.442Z,197.65
2022-09-18T00:47:48.480Z,196.71
2022-09-18T00:48:48.615Z,196.24
2022-09-18T00:49:48.634Z,196.71
2022-09-18T00:50:48.718Z,196.71
2022-09-18T00:51:48.814Z,196.47
2022-09-18T00:52:48.907Z,197.65
2022-09-18T00:53:48.991Z,197.41
2022-09-18T00:54:49.066Z,196.94
2022-09-18T00:55:49.152Z,196.59
2022-09-18T00:56:49.222Z,197.29
2022-09-18T00:57:49.302Z,196.94
2022-09-18T00:58:49.372Z,198.48
2022-09-18T00:59:49.456Z,197.76
2022-09-18T01:00:49.613Z,197.76
2022-09-18T01:01:49.642Z,197.53
2022-09-18T01:02:49.696Z,196.59
2022-09-18T01:03:49.793Z,198.00
2022-09-18T01:04:49.853Z,197.06
2022-09-18T01:05:49.931Z,196.24
2022-09-18T01:06:50.025Z,197.41
2022-09-18T01:07:50.089Z,197.29
2022-09-18T01:08:50.186Z,197.88
2022-09-18T01:09:50.273Z,198.12
2022-09-18T01:10:50.365Z,198.12
2022-09-18T01:11:50.418Z,197.41
2022-09-18T01:12:50.511Z,198.24
2022-09-18T01:13:50.580Z,197.65
2022-09-18T01:14:50.668Z,197.53
2022-09-18T01:15:50.764Z,198.36
2022-09-18T01:16:50.828Z,197.41
2022-09-18T01:17:50.903Z,197.76
2022-09-18T01:18:51.079Z,197.53
2022-09-18T01:19:51.081Z,198.95
2022-09-18T01:20:51.165Z,198.24
2022-09-18T01:21:51.233Z,199.31
2022-09-18T01:22:51.308Z,198.60
2022-09-18T01:23:51.389Z,198.00
2022-09-18T01:24:51.456Z,199.07
2022-09-18T01:25:51.535Z,199.80
2022-09-18T01:26:51.631Z,198.95
2022-09-18T01:27:51.706Z,199.19
2022-09-18T01:28:51.790Z,199.31
2022-09-18T01:29:51.875Z,199.31
2022-09-18T01:30:51.951Z,198.60
2022-09-18T01:31:52.070Z,199.07
2022-09-18T01:32:52.092Z,198.71
2022-09-18T01:33:52.197Z,198.71
2022-09-18T01:34:52.263Z,198.71
2022-09-18T01:35:52.335Z,198.95
2022-09-18T01:36:52.430Z,200.04
2022-09-18T01:37:52.491Z,198.71
2022-09-18T01:38:52.580Z,200.65
2022-09-18T01:39:52.706Z,200.04
2022-09-18T01:40:52.739Z,200.16
2022-09-18T01:41:52.819Z,200.52
2022-09-18T01:42:52.890Z,199.43
2022-09-18T01:43:52.978Z,199.19
2022-09-18T01:44:53.045Z,198.95
2022-09-18T01:45:53.117Z,199.07
2022-09-18T01:46:53.281Z,199.55
2022-09-18T01:47:53.279Z,198.84
2022-09-18T01:48:53.352Z,201.01
2022-09-18T01:49:53.446Z,200.16
2022-09-18T01:50:53.515Z,200.16
2022-09-18T01:51:53.579Z,200.40
2022-09-18T01:52:53.692Z,200.40
2022-09-18T01:53:53.763Z,199.92
2022-09-18T01:54:53.851Z,201.13
2022-09-18T01:55:53.919Z,200.40
2022-09-18T01:56:53.994Z,199.92
2022-09-18T01:57:54.076Z,199.19
2022-09-18T01:58:54.156Z,200.77
2022-09-18T01:59:54.270Z,200.89
2022-09-18T02:00:54.324Z,200.65
2022-09-18T02:01:54.512Z,200.16
2022-09-18T02:02:54.521Z,200.04
2022-09-18T02:03:54.553Z,200.16
2022-09-18T02:04:54.652Z,200.52
2022-09-18T02:05:54.701Z,200.89
2022-09-18T02:06:54.812Z,201.62
2022-09-18T02:07:54.848Z,201.38
2022-09-18T02:08:54.930Z,200.04
2022-09-18T02:09:55.013Z,201.01
2022-09-18T02:10:55.103Z,200.52
2022-09-18T02:11:55.168Z,200.40
2022-09-18T02:12:55.256Z,201.87
2022-09-18T02:13:55.329Z,200.52
2022-09-18T02:14:55.393Z,200.77
2022-09-18T02:15:55.509Z,200.40
2022-09-18T02:16:55.558Z,200.77
2022-09-18T02:17:55.628Z,200.77
2022-09-18T02:18:55.717Z,202.12
2022-09-18T02:19:55.798Z,200.77
2022-09-18T02:20:55.900Z,201.75
2022-09-18T02:21:55.969Z,201.87
2022-09-18T02:22:56.079Z,201.26
2022-09-18T02:23:56.146Z,202.74
2022-09-18T02:24:56.233Z,201.50
2022-09-18T02:25:56.310Z,201.26
2022-09-18T02:26:56.398Z,201.26
2022-09-18T02:27:56.517Z,201.13
2022-09-18T02:28:56.564Z,202.49
2022-09-18T02:29:56.641Z,202.12
2022-09-18T02:30:56.784Z,202.24
2022-09-18T02:31:56.790Z,201.38
2022-09-18T02:32:56.872Z,201.99
2022-09-18T02:33:56.929Z,202.24
2022-09-18T02:34:57.018Z,202.12
2022-09-18T02:35:57.092Z,201.99
2022-09-18T02:36:57.184Z,202.12
2022-09-18T02:37:57.269Z,202.86
2022-09-18T02:38:57.348Z,201.87
2022-09-18T02:39:57.505Z,201.99
2022-09-18T02:40:57.495Z,200.89
2022-09-18T02:41:57.563Z,203.61
2022-09-18T02:42:57.669Z,203.24
2022-09-18T02:43:57.718Z,202.24
2022-09-18T02:44:57.801Z,203.24
2022-09-18T02:45:57.862Z,202.74
2022-09-18T02:46:57.993Z,202.49
2022-09-18T02:47:58.023Z,202.99
2022-09-18T02:48:58.102Z,202.49
2022-09-18T02:49:58.170Z,203.36
2022-09-18T02:50:58.247Z,203.36
2022-09-18T02:51:58.319Z,203.24
2022-09-18T02:52:58.413Z,203.24
2022-09-18T02:53:58.471Z,202.86
2022-09-18T02:54:58.541Z,203.11
2022-09-18T02:55:58.612Z,203.61
2022-09-18T02:56:58.689Z,203.11
2022-09-18T02:57:58.773Z,201.99
2022-09-18T02:58:58.845Z,203.11
2022-09-18T02:59:58.924Z,203.61
2022-09-18T03:00:58.997Z,203.36
2022-09-18T03:01:59.263Z,203.61
2022-09-18T03:02:59.212Z,203.36
2022-09-18T03:03:59.244Z,203.11
2022-09-18T03:04:59.328Z,202.12
2022-09-18T03:05:59.402Z,204.24
2022-09-18T03:06:59.473Z,204.11
2022-09-18T03:07:59.579Z,203.36
2022-09-18T03:08:59.649Z,204.49
2022-09-18T03:09:59.724Z,203.74
2022-09-18T03:10:59.851Z,204.49
2022-09-18T03:11:59.874Z,204.37
2022-09-18T03:12:59.963Z,202.99
2022-09-18T03:14:00.035Z,203.11
2022-09-18T03:15:00.131Z,203.86
2022-09-18T03:16:00.278Z,202.74
2022-09-18T03:17:00.284Z,204.11
2022-09-18T03:18:00.382Z,203.74
2022-09-18T03:19:00.443Z,203.61
2022-09-18T03:20:00.537Z,204.24
2022-09-18T03:21:00.591Z,203.86
2022-09-18T03:22:00.694Z,203.49
2022-09-18T03:23:00.762Z,204.62
2022-09-18T03:24:00.914Z,203.61
2022-09-18T03:25:00.937Z,204.11
2022-09-18T03:26:00.989Z,203.36
2022-09-18T03:27:01.079Z,203.74
2022-09-18T03:28:01.137Z,204.62
2022-09-18T03:29:01.203Z,203.99
2022-09-18T03:30:01.277Z,204.49
2022-09-18T03:31:01.421Z,204.24
2022-09-18T03:32:01.455Z,204.11
2022-09-18T03:33:01.497Z,203.99
2022-09-18T03:34:01.595Z,204.37
2022-09-18T03:35:01.661Z,204.49
2022-09-18T03:36:01.745Z,204.49
2022-09-18T03:37:01.831Z,204.24
2022-09-18T03:38:01.897Z,205.26
2022-09-18T03:39:02.121Z,204.87
2022-09-18T03:40:02.126Z,205.26
2022-09-18T03:41:02.156Z,203.74
2022-09-18T03:42:02.227Z,205.00
2022-09-18T03:43:02.293Z,204.87
2022-09-18T03:44:02.371Z,204.87
2022-09-18T03:45:02.444Z,204.49
2022-09-18T03:46:02.545Z,204.75
2022-09-18T03:47:02.605Z,204.37
2022-09-18T03:48:02.669Z,204.62
2022-09-18T03:49:02.745Z,204.62
2022-09-18T03:50:02.826Z,204.24
2022-09-18T03:51:02.931Z,205.51
2022-09-18T03:52:03.018Z,205.00
2022-09-18T03:53:03.079Z,204.75
2022-09-18T03:54:03.243Z,205.51
2022-09-18T03:55:03.240Z,205.89
2022-09-18T03:56:03.307Z,204.62
2022-09-18T03:57:03.404Z,204.37
2022-09-18T03:58:03.502Z,204.49
2022-09-18T03:59:03.545Z,204.49
2022-09-18T04:00:03.637Z,205.13
2022-09-18T04:01:03.722Z,204.75
2022-09-18T04:02:03.861Z,205.89
2022-09-18T04:03:03.909Z,205.26
2022-09-18T04:04:03.954Z,204.11
2022-09-18T04:05:04.025Z,205.51
2022-09-18T04:06:04.110Z,205.51
2022-09-18T04:07:04.179Z,206.15
2022-09-18T04:08:04.304Z,204.49
2022-09-18T04:09:04.342Z,205.26
2022-09-18T04:10:04.431Z,205.51
2022-09-18T04:11:04.546Z,205.38
2022-09-18T04:12:04.588Z,204.62
2022-09-18T04:13:04.670Z,205.38
2022-09-18T04:14:04.747Z,206.67
2022-09-18T04:15:04.818Z,205.26
2022-09-18T04:16:04.919Z,206.54
2022-09-18T04:17:04.972Z,205.89
2022-09-18T04:18:05.052Z,207.44
2022-09-18T04:19:05.122Z,205.89
2022-09-18T04:20:05.212Z,206.15
2022-09-18T04:21:05.292Z,206.02
2022-09-18T04:22:05.366Z,204.75
2022-09-18T04:23:05.427Z,205.26
2022-09-18T04:24:05.511Z,207.05
2022-09-18T04:25:05.616Z,205.26
2022-09-18T04:26:05.665Z,206.79
2022-09-18T04:27:05.767Z,206.15
2022-09-18T04:28:05.834Z,205.26
2022-09-18T04:29:05.910Z,205.77
2022-09-18T04:30:05.996Z,206.41
2022-09-18T04:31:06.119Z,206.28
2022-09-18T04:32:06.172Z,206.54
2022-09-18T04:33:06.251Z,206.15
2022-09-18T04:34:06.303Z,207.05
2022-09-18T04:35:06.402Z,207.05
2022-09-18T04:36:06.448Z,206.15
2022-09-18T04:37:10.110Z,206.54
2022-09-18T04:38:06.595Z,206.15
2022-09-18T04:39:06.675Z,206.41
2022-09-18T04:40:06.832Z,205.89
2022-09-18T04:41:06.832Z,206.67
2022-09-18T04:42:06.899Z,207.97
2022-09-18T04:43:06.975Z,206.54
2022-09-18T04:44:07.045Z,207.05
2022-09-18T04:45:07.145Z,206.93
2022-09-18T04:46:07.251Z,206.93
2022-09-18T04:47:07.320Z,206.15
2022-09-18T04:48:07.404Z,206.79
2022-09-18T04:49:07.482Z,207.05
2022-09-18T04:50:07.563Z,206.67
2022-09-18T04:51:07.669Z,206.41
2022-09-18T04:52:07.736Z,207.57
2022-09-18T04:53:07.790Z,206.93
2022-09-18T04:54:07.885Z,206.67
2022-09-18T04:55:07.981Z,207.71
2022-09-18T04:56:08.052Z,207.84
2022-09-18T04:57:08.145Z,207.71
2022-09-18T04:58:08.234Z,207.84
2022-09-18T04:59:08.310Z,206.93
2022-09-18T05:00:08.412Z,206.79
2022-09-18T05:01:08.469Z,206.54
2022-09-18T05:02:08.553Z,207.05
2022-09-18T05:03:08.612Z,206.93
2022-09-18T05:04:08.688Z,207.31
2022-09-18T05:05:08.805Z,208.10
2022-09-18T05:06:08.838Z,207.05
2022-09-18T05:07:08.896Z,206.28
2022-09-18T05:08:08.980Z,207.05
2022-09-18T05:09:09.053Z,206.67
2022-09-18T05:10:09.277Z,206.28
2022-09-18T05:11:09.234Z,206.93
2022-09-18T05:12:09.319Z,206.67
2022-09-18T05:13:09.380Z,206.79
2022-09-18T05:14:09.466Z,207.18
2022-09-18T05:15:09.554Z,207.31
2022-09-18T05:16:09.711Z,206.67
2022-09-18T05:17:09.707Z,207.97
2022-09-18T05:18:11.746Z,207.05
2022-09-18T05:19:09.882Z,208.49
2022-09-18T05:20:09.953Z,207.31
2022-09-18T05:21:10.059Z,207.18
2022-09-18T05:22:10.098Z,207.97
2022-09-18T05:23:10.224Z,207.31
2022-09-18T05:24:10.224Z,207.31
2022-09-18T05:25:10.313Z,207.31
2022-09-18T05:26:10.382Z,206.67
2022-09-18T05:27:10.456Z,208.10
2022-09-18T05:28:10.527Z,207.31
2022-09-18T05:29:10.595Z,206.93
2022-09-18T05:30:10.717Z,207.44
2022-09-18T05:31:10.816Z,207.31
2022-09-18T05:32:10.887Z,207.97
2022-09-18T05:33:10.951Z,207.57
2022-09-18T05:34:11.036Z,208.23
2022-09-18T05:35:11.134Z,206.93
2022-09-18T05:36:11.211Z,208.10
2022-09-18T05:37:11.287Z,207.57
2022-09-18T05:38:11.418Z,207.57
2022-09-18T05:39:15.537Z,207.97
2022-09-18T05:40:11.848Z,207.97
2022-09-18T05:41:11.592Z,206.93
2022-09-18T05:42:11.672Z,208.10
2022-09-18T05:43:11.735Z,207.71
2022-09-18T05:44:11.822Z,206.67
2022-09-18T05:45:11.895Z,208.10
2022-09-18T05:46:12.034Z,208.49
2022-09-18T05:47:12.047Z,207.18
2022-09-18T05:48:12.127Z,207.57
2022-09-18T05:49:12.209Z,206.93
2022-09-18T05:50:12.298Z,207.44
2022-09-18T05:51:12.347Z,206.79
2022-09-18T05:52:12.451Z,206.93
2022-09-18T05:53:12.533Z,206.67
2022-09-18T05:54:12.626Z,206.93
2022-09-18T05:55:12.687Z,207.05
2022-09-18T05:56:12.760Z,207.97
2022-09-18T05:57:12.840Z,208.23
2022-09-18T05:58:12.912Z,207.97
2022-09-18T05:59:13.004Z,207.84
2022-09-18T06:00:13.172Z,206.79
2022-09-18T06:01:13.184Z,206.67
2022-09-18T06:02:13.331Z,206.28
2022-09-18T06:03:13.440Z,207.44
2022-09-18T06:04:13.456Z,205.64
2022-09-18T06:05:13.521Z,207.44
2022-09-18T06:06:13.624Z,206.67
2022-09-18T06:07:13.666Z,207.05
2022-09-18T06:08:13.746Z,206.15
2022-09-18T06:09:13.811Z,206.79
2022-09-18T06:10:13.913Z,207.44
2022-09-18T06:11:13.961Z,206.93
2022-09-18T06:12:14.067Z,206.67
2022-09-18T06:13:14.145Z,207.57
2022-09-18T06:14:14.221Z,206.02
2022-09-18T06:15:14.310Z,207.31
2022-09-18T06:16:14.480Z,207.18
2022-09-18T06:17:14.464Z,206.79
2022-09-18T06:18:14.547Z,207.44
2022-09-18T06:19:14.618Z,207.18
2022-09-18T06:20:14.720Z,208.23
2022-09-18T06:21:14.784Z,207.18
2022-09-18T06:22:14.868Z,207.97
2022-09-18T06:23:14.936Z,208.62
2022-09-18T06:24:15.010Z,207.97
2022-09-18T06:25:15.087Z,208.49
2022-09-18T06:26:15.380Z,207.44
2022-09-18T06:27:15.227Z,207.44
2022-09-18T06:28:15.299Z,208.23
2022-09-18T06:29:15.402Z,208.10
2022-09-18T06:30:15.488Z,209.02
2022-09-18T06:31:15.642Z,208.10
2022-09-18T06:32:15.630Z,209.81
2022-09-18T06:33:15.720Z,208.75
2022-09-18T06:34:15.806Z,209.68
2022-09-18T06:35:15.874Z,209.02
2022-09-18T06:36:15.965Z,209.41
2022-09-18T06:37:16.092Z,209.02
2022-09-18T06:38:16.168Z,209.02
2022-09-18T06:39:16.242Z,209.81
2022-09-18T06:40:16.369Z,209.28
2022-09-18T06:41:16.399Z,210.48
2022-09-18T06:42:16.473Z,210.75
2022-09-18T06:43:16.537Z,210.21
2022-09-18T06:44:16.672Z,210.62
2022-09-18T06:45:16.657Z,211.29
2022-09-18T06:46:16.827Z,210.48
2022-09-18T06:47:16.844Z,210.35
2022-09-18T06:48:16.947Z,210.75
2022-09-18T06:49:17.033Z,210.88
2022-09-18T06:50:17.069Z,211.29
2022-09-18T06:51:17.186Z,210.88
2022-09-18T06:52:17.235Z,210.62
2022-09-18T06:53:17.332Z,211.29
2022-09-18T06:54:17.426Z,211.56
2022-09-18T06:55:17.449Z,211.42
2022-09-18T06:56:17.599Z,212.65
2022-09-18T06:57:17.665Z,212.24
2022-09-18T06:58:17.733Z,212.92
2022-09-18T06:59:17.815Z,211.70
2022-09-18T07:00:17.868Z,211.70
2022-09-18T07:01:18.011Z,212.38
2022-09-18T07:02:19.774Z,213.20
2022-09-18T07:03:18.105Z,213.06
2022-09-18T07:04:18.237Z,212.65
2022-09-18T07:05:18.227Z,213.47
2022-09-18T07:06:18.357Z,214.02
2022-09-18T07:07:18.415Z,213.34
2022-09-18T07:08:18.516Z,212.79
2022-09-18T07:09:18.578Z,213.61
2022-09-18T07:10:18.618Z,213.61
2022-09-18T07:11:18.680Z,213.47
2022-09-18T07:12:18.764Z,213.20
2022-09-18T07:13:18.829Z,214.02
2022-09-18T07:14:18.926Z,214.72
2022-09-18T07:15:18.991Z,214.58
2022-09-18T07:16:19.146Z,214.02
2022-09-18T07:17:21.282Z,214.86
2022-09-18T07:18:19.239Z,214.86
2022-09-18T07:19:19.289Z,215.00
2022-09-18T07:20:19.397Z,215.00
2022-09-18T07:21:19.477Z,213.61
2022-09-18T07:22:19.517Z,213.75
2022-09-18T07:23:19.598Z,214.58
2022-09-18T07:24:19.673Z,215.42
2022-09-18T07:25:19.778Z,214.72
2022-09-18T07:26:19.819Z,214.86
2022-09-18T07:27:19.895Z,214.30
2022-09-18T07:28:19.986Z,214.02
2022-09-18T07:29:20.076Z,214.16
2022-09-18T07:30:20.137Z,215.14
2022-09-18T07:31:20.279Z,215.84
2022-09-18T07:32:20.278Z,214.86
2022-09-18T07:33:20.414Z,215.00
2022-09-18T07:34:20.484Z,215.14
2022-09-18T07:35:20.579Z,215.28
2022-09-18T07:36:20.618Z,214.72
2022-09-18T07:37:20.707Z,214.16
2022-09-18T07:38:21.069Z,214.58
2022-09-18T07:39:20.986Z,215.42
2022-09-18T07:40:21.071Z,214.30
2022-09-18T07:41:21.073Z,214.86
2022-09-18T07:42:21.135Z,215.28
2022-09-18T07:43:21.428Z,214.72
2022-09-18T07:44:21.616Z,214.86
2022-09-18T07:45:21.526Z,214.58
2022-09-18T07:46:21.487Z,215.42
2022-09-18T07:47:21.514Z,213.61
2022-09-18T07:48:21.607Z,215.28
2022-09-18T07:49:21.681Z,213.89
2022-09-18T07:50:21.762Z,214.58
2022-09-18T07:51:25.551Z,214.58
2022-09-18T07:52:21.963Z,214.16
2022-09-18T07:53:22.016Z,214.72
2022-09-18T07:54:22.096Z,213.75
2022-09-18T07:55:22.192Z,213.75
2022-09-18T07:56:22.234Z,214.72
2022-09-18T07:57:22.318Z,214.86
2022-09-18T07:58:22.393Z,215.28
2022-09-18T07:59:22.509Z,214.44
2022-09-18T08:00:22.638Z,215.00
2022-09-18T08:01:22.819Z,214.86
2022-09-18T08:02:22.770Z,215.00
2022-09-18T08:03:22.808Z,214.30
2022-09-18T08:04:22.883Z,214.30
2022-09-18T08:05:23.029Z,215.00
2022-09-18T08:06:23.017Z,212.65
2022-09-18T08:07:23.104Z,214.44
2022-09-18T08:08:23.185Z,213.89
2022-09-18T08:09:23.294Z,214.72
2022-09-18T08:10:23.343Z,214.30
2022-09-18T08:11:23.443Z,215.00
2022-09-18T08:12:23.479Z,213.89
2022-09-18T08:13:23.581Z,214.02
2022-09-18T08:14:28.564Z,215.00
2022-09-18T08:15:23.763Z,214.30
2022-09-18T08:16:23.872Z,215.42
2022-09-18T08:17:23.923Z,214.72
2022-09-18T08:18:24.000Z,214.30
2022-09-18T08:19:24.060Z,214.86
2022-09-18T08:20:24.148Z,214.86
2022-09-18T08:21:24.217Z,214.30
2022-09-18T08:22:24.283Z,214.02
2022-09-18T08:23:24.383Z,214.16
2022-09-18T08:24:24.426Z,214.30
2022-09-18T08:25:24.517Z,215.98
2022-09-18T08:26:24.596Z,214.58
2022-09-18T08:27:24.685Z,214.72
2022-09-18T08:28:24.798Z,213.89
2022-09-18T08:29:24.855Z,214.72
2022-09-18T08:30:24.923Z,214.72
2022-09-18T08:31:25.110Z,215.14
2022-09-18T08:32:25.092Z,215.14
2022-09-18T08:33:25.188Z,214.02
2022-09-18T08:34:25.237Z,213.89
2022-09-18T08:35:25.312Z,215.56
2022-09-18T08:36:25.380Z,213.75
2022-09-18T08:37:25.453Z,214.30
2022-09-18T08:38:25.539Z,212.92
2022-09-18T08:39:25.635Z,214.02
2022-09-18T08:40:25.739Z,213.89
2022-09-18T08:41:25.756Z,213.61
2022-09-18T08:42:26.307Z,214.30
2022-09-18T08:43:25.931Z,214.02
2022-09-18T08:44:25.988Z,213.89
2022-09-18T08:45:26.111Z,215.42
2022-09-18T08:46:26.207Z,214.16
2022-09-18T08:47:26.266Z,214.16
2022-09-18T08:48:26.326Z,214.44
2022-09-18T08:49:26.399Z,213.75
2022-09-18T08:50:26.481Z,214.86
2022-09-18T08:51:26.570Z,214.44
2022-09-18T08:52:26.634Z,214.58
2022-09-18T08:53:26.712Z,214.30
2022-09-18T08:54:26.800Z,214.44
2022-09-18T08:55:26.889Z,214.44
2022-09-18T08:56:26.978Z,214.72
2022-09-18T08:57:27.084Z,214.44
2022-09-18T08:58:27.141Z,213.34
2022-09-18T08:59:27.231Z,215.14
2022-09-18T09:00:27.318Z,214.02
2022-09-18T09:01:27.431Z,214.16
2022-09-18T09:02:27.516Z,214.02
2022-09-18T09:03:27.540Z,214.16
2022-09-18T09:04:27.624Z,215.00
2022-09-18T09:05:27.724Z,215.14
2022-09-18T09:06:27.803Z,215.56
2022-09-18T09:07:27.938Z,215.28
2022-09-18T09:08:27.966Z,214.86
2022-09-18T09:09:28.064Z,214.72
2022-09-18T09:10:28.147Z,215.98
2022-09-18T09:11:28.252Z,214.58
2022-09-18T09:12:28.308Z,215.00
2022-09-18T09:13:28.399Z,215.14
2022-09-18T09:14:52.801Z,213.75
2022-09-18T09:15:28.562Z,214.58
2022-09-18T09:16:28.703Z,214.16
2022-09-18T09:17:28.699Z,215.70
2022-09-18T09:18:28.767Z,215.28
2022-09-18T09:19:28.840Z,215.14
2022-09-18T09:20:28.925Z,216.12
2022-09-18T09:21:29.000Z,215.28
2022-09-18T09:22:29.087Z,215.42
2022-09-18T09:23:29.162Z,215.98
2022-09-18T09:24:29.234Z,217.12
2022-09-18T09:25:29.311Z,215.14
2022-09-18T09:26:29.382Z,215.14
2022-09-18T09:27:29.465Z,214.44
2022-09-18T09:28:29.589Z,215.00
2022-09-18T09:29:29.634Z,214.86
2022-09-18T09:30:29.725Z,213.61
2022-09-18T09:31:29.841Z,215.00
2022-09-18T09:32:29.913Z,213.20
2022-09-18T09:33:29.971Z,213.89
2022-09-18T09:34:30.028Z,214.16
2022-09-18T09:35:30.114Z,213.89
2022-09-18T09:36:30.204Z,214.02
2022-09-18T09:37:33.646Z,213.61
2022-09-18T09:38:30.387Z,212.65
2022-09-18T09:39:30.425Z,214.72
2022-09-18T09:40:30.575Z,213.06
2022-09-18T09:41:30.590Z,213.61
2022-09-18T09:42:30.720Z,213.34
2022-09-18T09:43:30.767Z,213.06
2022-09-18T09:44:30.817Z,214.02
2022-09-18T09:45:30.913Z,212.79
2022-09-18T09:46:31.149Z,215.00
2022-09-18T09:47:31.154Z,212.51
2022-09-18T09:48:31.160Z,213.89
2022-09-18T09:49:31.235Z,213.75
2022-09-18T09:50:31.327Z,214.16
2022-09-18T09:51:31.400Z,212.51
2022-09-18T09:52:31.485Z,213.47
2022-09-18T09:53:31.578Z,213.06
2022-09-18T09:54:31.652Z,214.58
2022-09-18T09:55:31.730Z,213.34
2022-09-18T09:56:31.810Z,212.92
2022-09-18T09:57:31.894Z,214.02
2022-09-18T09:58:32.001Z,212.92
2022-09-18T09:59:32.063Z,212.24
2022-09-18T10:00:32.202Z,212.92
2022-09-18T10:01:32.323Z,212.92
2022-09-18T10:02:32.333Z,211.70
2022-09-18T10:03:32.377Z,212.65
2022-09-18T10:04:32.455Z,212.10
2022-09-18T10:05:32.551Z,212.79
2022-09-18T10:06:32.622Z,212.51
2022-09-18T10:07:32.702Z,212.10
2022-09-18T10:08:32.820Z,212.10
2022-09-18T10:09:32.865Z,212.65
2022-09-18T10:10:32.971Z,211.97
2022-09-18T10:11:33.060Z,211.70
2022-09-18T10:12:33.110Z,212.79
2022-09-18T10:13:33.185Z,211.97
2022-09-18T10:14:33.257Z,212.24
2022-09-18T10:15:33.342Z,211.83
2022-09-18T10:16:33.563Z,212.24
2022-09-18T10:17:33.511Z,213.75
2022-09-18T10:18:33.589Z,212.65
2022-09-18T10:19:33.669Z,212.51
2022-09-18T10:20:33.754Z,213.34
2022-09-18T10:21:33.833Z,213.20
2022-09-18T10:22:33.919Z,213.75
2022-09-18T10:23:34.216Z,212.65
2022-09-18T10:24:34.061Z,213.34
2022-09-18T10:25:34.157Z,214.44
2022-09-18T10:26:34.232Z,212.92
2022-09-18T10:27:34.283Z,213.47
2022-09-18T10:28:34.359Z,213.34
2022-09-18T10:29:36.232Z,213.61
2022-09-18T10:30:34.503Z,214.44
2022-09-18T10:31:34.657Z,214.86
2022-09-18T10:32:34.657Z,214.72
2022-09-18T10:33:34.863Z,214.72
2022-09-18T10:34:34.797Z,213.61
2022-09-18T10:35:34.880Z,215.56
2022-09-18T10:36:34.947Z,214.02
2022-09-18T10:37:35.024Z,213.75
2022-09-18T10:38:35.106Z,213.89
2022-09-18T10:39:35.183Z,213.47
2022-09-18T10:40:35.349Z,214.02
2022-09-18T10:41:35.335Z,214.44
2022-09-18T10:42:35.413Z,214.72
2022-09-18T10:43:35.517Z,214.02
2022-09-18T10:44:35.554Z,214.16
2022-09-18T10:45:35.650Z,215.28
2022-09-18T10:46:35.846Z,215.14
2022-09-18T10:47:35.798Z,215.56
2022-09-18T10:48:35.867Z,214.72
2022-09-18T10:49:35.980Z,214.30
2022-09-18T10:50:36.118Z,214.16
2022-09-18T10:51:36.138Z,215.84
2022-09-18T10:52:36.230Z,214.72
2022-09-18T10:53:36.326Z,216.55
2022-09-18T10:54:36.396Z,214.72
2022-09-18T10:55:36.488Z,214.30
2022-09-18T10:56:36.547Z,214.58
2022-09-18T10:57:36.628Z,215.14
2022-09-18T10:58:36.696Z,216.12
2022-09-18T10:59:36.787Z,214.72
2022-09-18T11:00:36.927Z,214.86
2022-09-18T11:01:39.489Z,216.41
2022-09-18T11:02:37.035Z,215.84
2022-09-18T11:03:37.080Z,215.00
2022-09-18T11:04:37.164Z,215.42
2022-09-18T11:05:37.272Z,214.86
2022-09-18T11:06:37.304Z,215.28
2022-09-18T11:07:37.388Z,215.00
2022-09-18T11:08:37.465Z,215.14
2022-09-18T11:09:37.546Z,215.84
2022-09-18T11:10:37.674Z,215.84
2022-09-18T11:11:37.711Z,215.00
2022-09-18T11:12:37.797Z,215.00
2022-09-18T11:13:37.867Z,216.12
2022-09-18T11:14:37.947Z,214.72
2022-09-18T11:15:38.056Z,215.98
2022-09-18T11:16:38.169Z,216.12
2022-09-18T11:17:38.217Z,215.56
2022-09-18T11:18:38.311Z,215.14
2022-09-18T11:19:38.386Z,215.84
2022-09-18T11:20:38.469Z,215.28
2022-09-18T11:21:38.542Z,215.70
2022-09-18T11:22:38.611Z,215.28
2022-09-18T11:23:38.701Z,215.28
2022-09-18T11:24:38.747Z,215.98
2022-09-18T11:25:38.850Z,216.55
2022-09-18T11:26:38.895Z,216.69
2022-09-18T11:27:38.977Z,215.70
2022-09-18T11:28:39.078Z,215.84
2022-09-18T11:29:39.158Z,215.56
2022-09-18T11:30:39.230Z,215.84
2022-09-18T11:31:39.385Z,216.83
2022-09-18T11:32:39.379Z,215.56
2022-09-18T11:33:39.457Z,215.42
2022-09-18T11:34:39.549Z,215.42
2022-09-18T11:35:39.604Z,215.98
2022-09-18T11:36:39.678Z,217.26
2022-09-18T11:37:39.751Z,216.41
2022-09-18T11:38:39.843Z,216.83
2022-09-18T11:39:39.922Z,215.42
2022-09-18T11:40:40.055Z,216.69
2022-09-18T11:41:40.074Z,215.56
2022-09-18T11:42:40.153Z,215.42
2022-09-18T11:43:40.229Z,215.70
2022-09-18T11:44:40.509Z,215.98
2022-09-18T11:45:40.386Z,216.69
2022-09-18T11:46:40.529Z,215.14
2022-09-18T11:47:40.564Z,216.27
2022-09-18T11:48:40.636Z,216.12
2022-09-18T11:49:40.746Z,217.83
2022-09-18T11:50:40.788Z,217.69
2022-09-18T11:51:40.895Z,216.98
2022-09-18T11:52:40.950Z,216.55
2022-09-18T11:53:41.026Z,215.28
2022-09-18T11:54:41.116Z,216.12
2022-09-18T11:55:41.191Z,216.27
2022-09-18T11:56:41.271Z,215.98
2022-09-18T11:57:41.340Z,217.40
2022-09-18T11:58:41.409Z,216.27
2022-09-18T11:59:41.494Z,216.12
2022-09-18T12:00:41.558Z,215.84
2022-09-18T12:01:41.717Z,216.12
2022-09-18T12:02:41.862Z,217.12
2022-09-18T12:03:41.783Z,216.12
2022-09-18T12:04:41.896Z,216.12
2022-09-18T12:05:41.944Z,217.55
2022-09-18T12:06:42.036Z,216.27
2022-09-18T12:07:40.768Z,216.41
2022-09-18T12:08:40.839Z,215.84
2022-09-18T12:09:40.938Z,216.69
2022-09-18T12:10:40.991Z,216.69
2022-09-18T12:11:41.074Z,215.98
2022-09-18T12:12:41.152Z,216.98
2022-09-18T12:13:41.301Z,215.42
2022-09-18T12:14:41.326Z,216.83
2022-09-18T12:15:41.374Z,216.41
2022-09-18T12:16:41.503Z,216.27
2022-09-18T12:17:41.545Z,216.83
2022-09-18T12:18:41.658Z,217.12
2022-09-18T12:19:41.719Z,216.12
2022-09-18T12:20:41.792Z,215.98
2022-09-18T12:21:41.863Z,215.84
2022-09-18T12:22:41.941Z,215.98
2022-09-18T12:23:42.010Z,216.41
2022-09-18T12:24:42.113Z,216.12
2022-09-18T12:25:42.143Z,216.83
2022-09-18T12:26:42.219Z,216.69
2022-09-18T12:27:42.313Z,217.40
2022-09-18T12:28:42.391Z,215.98
2022-09-18T12:29:42.484Z,216.55